Darstellungsparameter: Aktuell verwendete Einstellungen:
Skalierung der Graphiken ... ?
xyx+y,   Skalierungsfaktor:      Skalierung: Modus: x, Faktor: 1
Darstellungszeitraum ... ?
Vom - - bis: - -   Zeitraum: 27.11.2017 - 27.11.2017
Min/Max/Avg-Anzeige ... ?
Zeige MMA aktuell
Zeige MMA Monat
Zeige MMA alles
Zeige --A aktuell
Zeige --A Monat
Zeige --A alles
Keine MMA-Anzeige
MMA:
Minimum Maximum Average (ber die Originaldaten)
MMA-Basis: 23.02.2003 - 28.11.2020
Quicknavigation für Darstellung... ?
Tage:      1T, 2T, 3T, 5T -1T -2T -3T -5T +1T +2T +3T +5T
Wochen: 1W, 2W, 3W -1W -2W -3W +1W +2W +3W
Monate: 1M, 3M, 6M -1M -3M -6M +1M +3M +6M
Jahre:    1J, 3J, 5J, 10J -1J -3J -5J -10J +1J +3J +5J +10J
Nutze für die Darstellung ... ?
Originaldaten oder Mittelwerte auf ...
Stundenbasis Tagesbasis Wochenbasis
Monatsbasis Jahresbasis      Datenbasis: Original-Daten
Darstellen als:
Statistik (Auto) Statistik J:M      Darstellung:
Zur Graphik,    zurück zur Übersicht aller Sensoren.
 
Tabellarische Datenbersicht: ?
 
Sensor: Nr:Datum:Temp:Abs-Feuchte:Windchill:Wind:
Aussen-T/F 1 27-11-2017 00:00:00 3.8 C 5.71 g/m*3 0.94 C 11.3 km/h
2 27-11-2017 00:05:00 3.9 C 5.68 g/m*3 1.41 C 9.7 km/h
3 27-11-2017 00:10:00 4.1 C 5.7 g/m*3 2.05 C 8.1 km/h
4 27-11-2017 00:15:00 4.1 C 5.7 g/m*3 1.65 C 9.7 km/h
5 27-11-2017 00:20:00 4.2 C 5.73 g/m*3 1.12 C 12.9 km/h
6 27-11-2017 00:25:00 4.2 C 5.73 g/m*3 1.12 C 12.9 km/h
7 27-11-2017 00:30:00 4.2 C 5.73 g/m*3 4.2 C 4.8 km/h
8 27-11-2017 00:35:00 4.1 C 5.7 g/m*3 4.1 C 4.8 km/h
9 27-11-2017 00:40:00 4 C 5.66 g/m*3 4 C 3.2 km/h
10 27-11-2017 00:45:00 3.9 C 5.62 g/m*3 3.9 C 1.6 km/h
11 27-11-2017 00:50:00 3.8 C 5.58 g/m*3 3.8 C 1.6 km/h
12 27-11-2017 00:55:00 3.7 C 5.55 g/m*3 3.7 C 1.6 km/h
13 27-11-2017 01:00:00 3.5 C 5.53 g/m*3 3.5 C 1.6 km/h
14 27-11-2017 01:05:00 3.4 C 5.5 g/m*3 3.4 C 4.8 km/h
15 27-11-2017 01:10:00 3.3 C 5.46 g/m*3 3.3 C 3.2 km/h
16 27-11-2017 01:15:00 3.2 C 5.42 g/m*3 -0.1 C 12.9 km/h
17 27-11-2017 01:20:00 3.2 C 5.48 g/m*3 0.58 C 9.7 km/h
18 27-11-2017 01:25:00 3.3 C 5.52 g/m*3 0.34 C 11.3 km/h
19 27-11-2017 01:30:00 3.4 C 5.56 g/m*3 0.82 C 9.7 km/h
20 27-11-2017 01:35:00 3.4 C 5.5 g/m*3 1.23 C 8.1 km/h
21 27-11-2017 01:40:00 3.5 C 5.53 g/m*3 0.27 C 12.9 km/h
22 27-11-2017 01:45:00 3.7 C 5.55 g/m*3 0.51 C 12.9 km/h
23 27-11-2017 01:50:00 3.7 C 5.48 g/m*3 0.82 C 11.3 km/h
24 27-11-2017 01:55:00 3.8 C 5.46 g/m*3 0.35 C 14.5 km/h
25 27-11-2017 02:00:00 3.8 C 5.46 g/m*3 0.1 C 16.1 km/h
Sensor: Nr:Datum:Temp:Abs-Feuchte:Windchill:Wind:
Aussen-T/F 26 27-11-2017 02:05:00 3.9 C 5.43 g/m*3 1.06 C 11.3 km/h
27 27-11-2017 02:10:00 3.9 C 5.37 g/m*3 1.06 C 11.3 km/h
28 27-11-2017 02:15:00 3.9 C 5.31 g/m*3 1.06 C 11.3 km/h
29 27-11-2017 02:20:00 3.8 C 5.27 g/m*3 1.7 C 8.1 km/h
30 27-11-2017 02:25:00 3.8 C 5.27 g/m*3 0.94 C 11.3 km/h
31 27-11-2017 02:30:00 3.8 C 5.27 g/m*3 0.63 C 12.9 km/h
32 27-11-2017 02:35:00 3.9 C 5.31 g/m*3 0.75 C 12.9 km/h
33 27-11-2017 02:40:00 4 C 5.34 g/m*3 1.53 C 9.7 km/h
34 27-11-2017 02:45:00 4.1 C 5.38 g/m*3 1.65 C 9.7 km/h
35 27-11-2017 02:50:00 4.1 C 5.38 g/m*3 1 C 12.9 km/h
36 27-11-2017 02:55:00 4.1 C 5.38 g/m*3 1.31 C 11.3 km/h
37 27-11-2017 03:00:00 4.1 C 5.38 g/m*3 -0.18 C 20.9 km/h
38 27-11-2017 03:05:00 4.1 C 5.38 g/m*3 1.65 C 9.7 km/h
39 27-11-2017 03:10:00 4.1 C 5.44 g/m*3 2.05 C 8.1 km/h
40 27-11-2017 03:15:00 4.1 C 5.44 g/m*3 0.47 C 16.1 km/h
41 27-11-2017 03:20:00 4.1 C 5.44 g/m*3 2.05 C 8.1 km/h
42 27-11-2017 03:25:00 4 C 5.4 g/m*3 0.88 C 12.9 km/h
43 27-11-2017 03:30:00 4 C 5.47 g/m*3 1.53 C 9.7 km/h
44 27-11-2017 03:35:00 4 C 5.47 g/m*3 0.34 C 16.1 km/h
45 27-11-2017 03:40:00 4 C 5.47 g/m*3 -0.11 C 19.3 km/h
46 27-11-2017 03:45:00 4 C 5.47 g/m*3 1.53 C 9.7 km/h
47 27-11-2017 03:50:00 3.9 C 5.43 g/m*3 1.41 C 9.7 km/h
48 27-11-2017 03:55:00 3.9 C 5.43 g/m*3 1.41 C 9.7 km/h
49 27-11-2017 04:00:00 3.9 C 5.49 g/m*3 0.47 C 14.5 km/h
50 27-11-2017 04:05:00 3.9 C 5.49 g/m*3 1.82 C 8.1 km/h
Sensor: Nr:Datum:Temp:Abs-Feuchte:Windchill:Wind:
Aussen-T/F 51 27-11-2017 04:10:00 3.8 C 5.46 g/m*3 1.29 C 9.7 km/h
52 27-11-2017 04:15:00 3.8 C 5.46 g/m*3 0.94 C 11.3 km/h
53 27-11-2017 04:20:00 3.8 C 5.46 g/m*3 0.1 C 16.1 km/h
54 27-11-2017 04:25:00 3.8 C 5.46 g/m*3 0.35 C 14.5 km/h
55 27-11-2017 04:30:00 3.8 C 5.46 g/m*3 0.63 C 12.9 km/h
56 27-11-2017 04:35:00 3.8 C 5.4 g/m*3 0.35 C 14.5 km/h
57 27-11-2017 04:40:00 3.8 C 5.4 g/m*3 1.29 C 9.7 km/h
58 27-11-2017 04:45:00 3.9 C 5.43 g/m*3 0.22 C 16.1 km/h
59 27-11-2017 04:50:00 3.9 C 5.37 g/m*3 0.75 C 12.9 km/h
60 27-11-2017 04:55:00 3.9 C 5.37 g/m*3 0.47 C 14.5 km/h
61 27-11-2017 05:00:00 3.9 C 5.37 g/m*3 1.41 C 9.7 km/h
62 27-11-2017 05:05:00 3.9 C 5.37 g/m*3 1.82 C 8.1 km/h
63 27-11-2017 05:10:00 3.9 C 5.37 g/m*3 0.75 C 12.9 km/h
64 27-11-2017 05:15:00 3.9 C 5.37 g/m*3 1.06 C 11.3 km/h
65 27-11-2017 05:20:00 3.8 C 5.33 g/m*3 0.63 C 12.9 km/h
66 27-11-2017 05:25:00 3.8 C 5.4 g/m*3 2.21 C 6.4 km/h
67 27-11-2017 05:30:00 3.8 C 5.4 g/m*3 0.35 C 14.5 km/h
68 27-11-2017 05:35:00 3.8 C 5.4 g/m*3 1.29 C 9.7 km/h
69 27-11-2017 05:40:00 3.8 C 5.4 g/m*3 0.94 C 11.3 km/h
70 27-11-2017 05:45:00 3.8 C 5.4 g/m*3 0.94 C 11.3 km/h
71 27-11-2017 05:50:00 3.8 C 5.4 g/m*3 1.7 C 8.1 km/h
72 27-11-2017 05:55:00 3.8 C 5.4 g/m*3 1.29 C 9.7 km/h
73 27-11-2017 06:00:00 3.8 C 5.4 g/m*3 1.7 C 8.1 km/h
74 27-11-2017 06:05:00 3.7 C 5.36 g/m*3 0.82 C 11.3 km/h
75 27-11-2017 06:10:00 3.7 C 5.36 g/m*3 1.18 C 9.7 km/h
Sensor: Nr:Datum:Temp:Abs-Feuchte:Windchill:Wind:
Aussen-T/F 76 27-11-2017 06:15:00 3.7 C 5.42 g/m*3 0.82 C 11.3 km/h
77 27-11-2017 06:20:00 3.6 C 5.39 g/m*3 1.46 C 8.1 km/h
78 27-11-2017 06:25:00 3.6 C 5.39 g/m*3 0.7 C 11.3 km/h
79 27-11-2017 06:30:00 3.7 C 5.42 g/m*3 0.23 C 14.5 km/h
80 27-11-2017 06:35:00 3.8 C 5.46 g/m*3 0.35 C 14.5 km/h
81 27-11-2017 06:40:00 3.8 C 5.46 g/m*3 0.1 C 16.1 km/h
82 27-11-2017 06:45:00 3.8 C 5.46 g/m*3 1.29 C 9.7 km/h
83 27-11-2017 06:50:00 3.8 C 5.46 g/m*3 -0.14 C 17.7 km/h
84 27-11-2017 06:55:00 3.8 C 5.46 g/m*3 -0.36 C 19.3 km/h
85 27-11-2017 07:00:00 3.7 C 5.42 g/m*3 -0.03 C 16.1 km/h
86 27-11-2017 07:05:00 3.7 C 5.42 g/m*3 -0.48 C 19.3 km/h
87 27-11-2017 07:10:00 3.7 C 5.42 g/m*3 -0.26 C 17.7 km/h
88 27-11-2017 07:15:00 3.7 C 5.42 g/m*3 1.18 C 9.7 km/h
89 27-11-2017 07:20:00 3.6 C 5.45 g/m*3 -0.39 C 17.7 km/h
90 27-11-2017 07:25:00 3.7 C 5.48 g/m*3 -0.48 C 19.3 km/h
91 27-11-2017 07:30:00 3.7 C 5.48 g/m*3 0.51 C 12.9 km/h
92 27-11-2017 07:35:00 3.8 C 5.46 g/m*3 0.1 C 16.1 km/h
93 27-11-2017 07:40:00 3.9 C 5.49 g/m*3 0.22 C 16.1 km/h
94 27-11-2017 07:45:00 4 C 5.53 g/m*3 0.11 C 17.7 km/h
95 27-11-2017 07:50:00 4.1 C 5.57 g/m*3 2.05 C 8.1 km/h
96 27-11-2017 07:55:00 4.1 C 5.57 g/m*3 2.05 C 8.1 km/h
97 27-11-2017 08:00:00 4.2 C 5.61 g/m*3 0.59 C 16.1 km/h
98 27-11-2017 08:05:00 4.2 C 5.61 g/m*3 1.43 C 11.3 km/h
99 27-11-2017 08:10:00 4.2 C 5.61 g/m*3 0.84 C 14.5 km/h
100 27-11-2017 08:15:00 4.2 C 5.67 g/m*3 1.43 C 11.3 km/h
Sensor: Nr:Datum:Temp:Abs-Feuchte:Windchill:Wind:
Aussen-T/F 101 27-11-2017 08:20:00 4.2 C 5.73 g/m*3 4.2 C 3.2 km/h
102 27-11-2017 08:25:00 4.1 C 5.76 g/m*3 4.1 C 1.6 km/h
103 27-11-2017 08:30:00 4.1 C 5.76 g/m*3 1.65 C 9.7 km/h
104 27-11-2017 08:35:00 4.1 C 5.76 g/m*3 1.65 C 9.7 km/h
105 27-11-2017 08:40:00 4.1 C 5.82 g/m*3 1.31 C 11.3 km/h
106 27-11-2017 08:45:00 4.1 C 5.82 g/m*3 1.65 C 9.7 km/h
107 27-11-2017 08:50:00 4.2 C 5.86 g/m*3 2.67 C 6.4 km/h
108 27-11-2017 08:55:00 4.2 C 5.86 g/m*3 2.17 C 8.1 km/h
109 27-11-2017 09:00:00 4.3 C 5.9 g/m*3 1.89 C 9.7 km/h
110 27-11-2017 09:05:00 4.3 C 5.84 g/m*3 2.29 C 8.1 km/h
111 27-11-2017 09:10:00 4.4 C 5.88 g/m*3 2.01 C 9.7 km/h
112 27-11-2017 09:15:00 4.5 C 5.92 g/m*3 2.13 C 9.7 km/h
113 27-11-2017 09:20:00 4.6 C 5.96 g/m*3 2.25 C 9.7 km/h
114 27-11-2017 09:25:00 4.7 C 6 g/m*3 0.99 C 17.7 km/h
115 27-11-2017 09:30:00 4.8 C 5.97 g/m*3 2.49 C 9.7 km/h
116 27-11-2017 09:35:00 4.9 C 6.01 g/m*3 2.27 C 11.3 km/h
117 27-11-2017 09:40:00 5.1 C 6.09 g/m*3 1.71 C 16.1 km/h
118 27-11-2017 09:45:00 5.2 C 6.13 g/m*3 2.07 C 14.5 km/h
119 27-11-2017 09:50:00 5.3 C 6.1 g/m*3 1.74 C 17.7 km/h
120 27-11-2017 09:55:00 5.3 C 6.1 g/m*3 2.2 C 14.5 km/h
121 27-11-2017 10:00:00 5.4 C 6.14 g/m*3 2.32 C 14.5 km/h
122 27-11-2017 10:05:00 5.5 C 6.18 g/m*3 2.2 C 16.1 km/h
123 27-11-2017 10:10:00 5.6 C 6.22 g/m*3 1.91 C 19.3 km/h
124 27-11-2017 10:15:00 5.6 C 6.22 g/m*3 2.11 C 17.7 km/h
125 27-11-2017 10:20:00 5.7 C 6.26 g/m*3 2.69 C 14.5 km/h
Sensor: Nr:Datum:Temp:Abs-Feuchte:Windchill:Wind:
Aussen-T/F 126 27-11-2017 10:25:00 5.7 C 6.26 g/m*3 2.69 C 14.5 km/h
127 27-11-2017 10:30:00 5.8 C 6.3 g/m*3 2.36 C 17.7 km/h
128 27-11-2017 10:35:00 5.8 C 6.3 g/m*3 3.07 C 12.9 km/h
129 27-11-2017 10:40:00 5.9 C 6.27 g/m*3 3.48 C 11.3 km/h
130 27-11-2017 10:45:00 6 C 6.31 g/m*3 2.82 C 16.1 km/h
131 27-11-2017 10:50:00 6.1 C 6.36 g/m*3 3.43 C 12.9 km/h
132 27-11-2017 10:55:00 6.1 C 6.36 g/m*3 2.18 C 22.5 km/h
133 27-11-2017 11:00:00 6.2 C 6.32 g/m*3 3.56 C 12.9 km/h
134 27-11-2017 11:05:00 6.2 C 6.4 g/m*3 3.56 C 12.9 km/h
135 27-11-2017 11:10:00 6.3 C 6.37 g/m*3 2.43 C 22.5 km/h
136 27-11-2017 11:15:00 6.4 C 6.41 g/m*3 3.8 C 12.9 km/h
137 27-11-2017 11:20:00 6.4 C 6.41 g/m*3 3.11 C 17.7 km/h
138 27-11-2017 11:25:00 6.4 C 6.33 g/m*3 3.55 C 14.5 km/h
139 27-11-2017 11:30:00 6.5 C 6.45 g/m*3 3.23 C 17.7 km/h
140 27-11-2017 11:35:00 6.5 C 6.37 g/m*3 2.38 C 25.7 km/h
141 27-11-2017 11:40:00 6.6 C 6.42 g/m*3 2.51 C 25.7 km/h
142 27-11-2017 11:45:00 6.6 C 6.42 g/m*3 3.79 C 14.5 km/h
143 27-11-2017 11:50:00 6.6 C 6.42 g/m*3 2.82 C 22.5 km/h
144 27-11-2017 11:55:00 6.6 C 6.42 g/m*3 3.57 C 16.1 km/h
145 27-11-2017 12:00:00 6.6 C 6.42 g/m*3 3.36 C 17.7 km/h
146 27-11-2017 12:05:00 6.7 C 6.46 g/m*3 3.11 C 20.9 km/h
147 27-11-2017 12:10:00 6.7 C 6.46 g/m*3 3.69 C 16.1 km/h
148 27-11-2017 12:15:00 6.7 C 6.46 g/m*3 3.69 C 16.1 km/h
149 27-11-2017 12:20:00 6.7 C 6.46 g/m*3 2.64 C 25.7 km/h
150 27-11-2017 12:25:00 6.7 C 6.46 g/m*3 3.69 C 16.1 km/h
Sensor: Nr:Datum:Temp:Abs-Feuchte:Windchill:Wind:
Aussen-T/F 151 27-11-2017 12:30:00 6.8 C 6.58 g/m*3 3.42 C 19.3 km/h
152 27-11-2017 12:35:00 6.8 C 6.58 g/m*3 3.61 C 17.7 km/h
153 27-11-2017 12:40:00 6.8 C 6.58 g/m*3 4.04 C 14.5 km/h
154 27-11-2017 12:45:00 6.8 C 6.58 g/m*3 4.04 C 14.5 km/h
155 27-11-2017 12:50:00 6.8 C 6.58 g/m*3 3.24 C 20.9 km/h
156 27-11-2017 12:55:00 6.9 C 6.54 g/m*3 3.2 C 22.5 km/h
157 27-11-2017 13:00:00 6.9 C 6.54 g/m*3 3.2 C 22.5 km/h
158 27-11-2017 13:05:00 6.9 C 6.54 g/m*3 3.94 C 16.1 km/h
159 27-11-2017 13:10:00 7 C 6.59 g/m*3 3.67 C 19.3 km/h
160 27-11-2017 13:15:00 7 C 6.59 g/m*3 3.33 C 22.5 km/h
161 27-11-2017 13:20:00 7.1 C 6.63 g/m*3 3.8 C 19.3 km/h
162 27-11-2017 13:25:00 7.1 C 6.63 g/m*3 4.19 C 16.1 km/h
163 27-11-2017 13:30:00 7.1 C 6.63 g/m*3 3.8 C 19.3 km/h
164 27-11-2017 13:35:00 7.1 C 6.63 g/m*3 2.74 C 30.6 km/h
165 27-11-2017 13:40:00 7.2 C 6.67 g/m*3 3.75 C 20.9 km/h
166 27-11-2017 13:45:00 7.2 C 6.67 g/m*3 3.58 C 22.5 km/h
167 27-11-2017 13:50:00 7.1 C 6.63 g/m*3 3.15 C 25.7 km/h
168 27-11-2017 13:55:00 7.1 C 6.71 g/m*3 3.62 C 20.9 km/h
169 27-11-2017 14:00:00 7.1 C 6.71 g/m*3 3.8 C 19.3 km/h
170 27-11-2017 14:05:00 7.1 C 6.71 g/m*3 4.19 C 16.1 km/h
171 27-11-2017 14:10:00 7.1 C 6.71 g/m*3 3.45 C 22.5 km/h
172 27-11-2017 14:15:00 7.1 C 6.71 g/m*3 3.62 C 20.9 km/h
173 27-11-2017 14:20:00 7.1 C 6.71 g/m*3 3.3 C 24.1 km/h
174 27-11-2017 14:25:00 7.1 C 6.71 g/m*3 3.15 C 25.7 km/h
175 27-11-2017 14:30:00 7.1 C 6.71 g/m*3 2.74 C 30.6 km/h
Sensor: Nr:Datum:Temp:Abs-Feuchte:Windchill:Wind:
Aussen-T/F 176 27-11-2017 14:35:00 7.1 C 6.71 g/m*3 3.8 C 19.3 km/h
177 27-11-2017 14:40:00 7 C 6.66 g/m*3 2.87 C 27.4 km/h
178 27-11-2017 14:45:00 7 C 6.66 g/m*3 3.17 C 24.1 km/h
179 27-11-2017 14:50:00 7 C 6.66 g/m*3 3.49 C 20.9 km/h
180 27-11-2017 14:55:00 7 C 6.66 g/m*3 3.49 C 20.9 km/h
181 27-11-2017 15:00:00 6.9 C 6.62 g/m*3 3.04 C 24.1 km/h
182 27-11-2017 15:05:00 6.9 C 6.62 g/m*3 3.37 C 20.9 km/h
183 27-11-2017 15:10:00 6.9 C 6.7 g/m*3 3.2 C 22.5 km/h
184 27-11-2017 15:15:00 6.9 C 6.7 g/m*3 2.36 C 32.2 km/h
185 27-11-2017 15:20:00 6.9 C 6.7 g/m*3 2.89 C 25.7 km/h
186 27-11-2017 15:25:00 6.9 C 6.7 g/m*3 3.2 C 22.5 km/h
187 27-11-2017 15:30:00 6.9 C 6.7 g/m*3 2.89 C 25.7 km/h
188 27-11-2017 15:35:00 6.8 C 6.65 g/m*3 2.91 C 24.1 km/h
189 27-11-2017 15:40:00 6.8 C 6.58 g/m*3 2.61 C 27.4 km/h
190 27-11-2017 15:45:00 6.8 C 6.58 g/m*3 2.61 C 27.4 km/h
191 27-11-2017 15:50:00 6.8 C 6.65 g/m*3 3.07 C 22.5 km/h
192 27-11-2017 15:55:00 6.8 C 6.65 g/m*3 2.76 C 25.7 km/h
193 27-11-2017 16:00:00 6.8 C 6.65 g/m*3 2.76 C 25.7 km/h
194 27-11-2017 16:05:00 6.7 C 6.61 g/m*3 3.11 C 20.9 km/h
195 27-11-2017 16:10:00 6.6 C 6.64 g/m*3 2.09 C 30.6 km/h
196 27-11-2017 16:15:00 6.6 C 6.64 g/m*3 2.82 C 22.5 km/h
197 27-11-2017 16:20:00 6.6 C 6.57 g/m*3 3.57 C 16.1 km/h
198 27-11-2017 16:25:00 6.5 C 6.52 g/m*3 2.69 C 22.5 km/h
199 27-11-2017 16:30:00 6.5 C 6.6 g/m*3 3.04 C 19.3 km/h
200 27-11-2017 16:35:00 6.4 C 6.48 g/m*3 2.56 C 22.5 km/h
Sensor: Nr:Datum:Temp:Abs-Feuchte:Windchill:Wind:
Aussen-T/F 201 27-11-2017 16:40:00 6.4 C 6.48 g/m*3 1.7 C 32.2 km/h
202 27-11-2017 16:45:00 6.4 C 6.48 g/m*3 1.58 C 33.8 km/h
203 27-11-2017 16:50:00 6.4 C 6.48 g/m*3 1.47 C 35.4 km/h
204 27-11-2017 16:55:00 6.4 C 6.48 g/m*3 2.1 C 27.4 km/h
205 27-11-2017 17:00:00 6.4 C 6.48 g/m*3 2.25 C 25.7 km/h
206 27-11-2017 17:05:00 6.5 C 6.52 g/m*3 2.69 C 22.5 km/h
207 27-11-2017 17:10:00 6.5 C 6.52 g/m*3 2.69 C 22.5 km/h
208 27-11-2017 17:15:00 6.6 C 6.57 g/m*3 2.66 C 24.1 km/h
209 27-11-2017 17:20:00 6.6 C 6.57 g/m*3 2.99 C 20.9 km/h
210 27-11-2017 17:25:00 6.6 C 6.57 g/m*3 2.99 C 20.9 km/h
211 27-11-2017 17:30:00 6.6 C 6.57 g/m*3 2.99 C 20.9 km/h
212 27-11-2017 17:35:00 6.6 C 6.57 g/m*3 2.82 C 22.5 km/h
213 27-11-2017 17:40:00 6.6 C 6.57 g/m*3 2.51 C 25.7 km/h
214 27-11-2017 17:45:00 6.6 C 6.49 g/m*3 2.82 C 22.5 km/h
215 27-11-2017 17:50:00 6.6 C 6.49 g/m*3 2.09 C 30.6 km/h
216 27-11-2017 17:55:00 6.7 C 6.61 g/m*3 3.11 C 20.9 km/h
217 27-11-2017 18:00:00 6.7 C 6.53 g/m*3 2.22 C 30.6 km/h
218 27-11-2017 18:05:00 6.7 C 6.53 g/m*3 3.48 C 17.7 km/h
219 27-11-2017 18:10:00 6.7 C 6.61 g/m*3 2.64 C 25.7 km/h
220 27-11-2017 18:15:00 6.7 C 6.53 g/m*3 2.79 C 24.1 km/h
221 27-11-2017 18:20:00 6.7 C 6.53 g/m*3 2.79 C 24.1 km/h
222 27-11-2017 18:25:00 6.8 C 6.58 g/m*3 3.61 C 17.7 km/h
223 27-11-2017 18:30:00 6.8 C 6.58 g/m*3 3.24 C 20.9 km/h
224 27-11-2017 18:35:00 6.8 C 6.58 g/m*3 2.35 C 30.6 km/h
225 27-11-2017 18:40:00 6.8 C 6.65 g/m*3 2.11 C 33.8 km/h
Sensor: Nr:Datum:Temp:Abs-Feuchte:Windchill:Wind:
Aussen-T/F 226 27-11-2017 18:45:00 6.8 C 6.58 g/m*3 2.48 C 29 km/h
227 27-11-2017 18:50:00 6.9 C 6.62 g/m*3 2.74 C 27.4 km/h
228 27-11-2017 18:55:00 6.9 C 6.62 g/m*3 2.74 C 27.4 km/h
229 27-11-2017 19:00:00 6.9 C 6.62 g/m*3 3.37 C 20.9 km/h
230 27-11-2017 19:05:00 7 C 6.74 g/m*3 2.49 C 32.2 km/h
231 27-11-2017 19:10:00 7 C 6.74 g/m*3 3.49 C 20.9 km/h
232 27-11-2017 19:15:00 7.1 C 6.79 g/m*3 3.45 C 22.5 km/h
233 27-11-2017 19:20:00 7.1 C 6.79 g/m*3 2.74 C 30.6 km/h
234 27-11-2017 19:25:00 7.1 C 6.79 g/m*3 3.8 C 19.3 km/h
235 27-11-2017 19:30:00 7.1 C 6.79 g/m*3 3.45 C 22.5 km/h
236 27-11-2017 19:35:00 7.1 C 6.79 g/m*3 3.45 C 22.5 km/h
237 27-11-2017 19:40:00 7.1 C 6.86 g/m*3 3.15 C 25.7 km/h
238 27-11-2017 19:45:00 7 C 6.82 g/m*3 3.02 C 25.7 km/h
239 27-11-2017 19:50:00 7 C 6.82 g/m*3 3.49 C 20.9 km/h
240 27-11-2017 19:55:00 7 C 6.82 g/m*3 3.02 C 25.7 km/h
241 27-11-2017 20:00:00 7 C 6.82 g/m*3 3.17 C 24.1 km/h
242 27-11-2017 20:05:00 7.1 C 6.86 g/m*3 3.3 C 24.1 km/h
243 27-11-2017 20:10:00 7.1 C 6.86 g/m*3 3.8 C 19.3 km/h
244 27-11-2017 20:15:00 7.1 C 6.86 g/m*3 3.3 C 24.1 km/h
245 27-11-2017 20:20:00 7.1 C 6.86 g/m*3 3.3 C 24.1 km/h
246 27-11-2017 20:25:00 7.2 C 6.91 g/m*3 3.58 C 22.5 km/h
247 27-11-2017 20:30:00 7.1 C 6.86 g/m*3 3.8 C 19.3 km/h
248 27-11-2017 20:35:00 7.1 C 6.94 g/m*3 3.62 C 20.9 km/h
249 27-11-2017 20:40:00 7.1 C 6.94 g/m*3 3.8 C 19.3 km/h
250 27-11-2017 20:45:00 7.1 C 6.94 g/m*3 2.62 C 32.2 km/h
Sensor: Nr:Datum:Temp:Abs-Feuchte:Windchill:Wind:
Aussen-T/F 251 27-11-2017 20:50:00 7.1 C 6.94 g/m*3 3.62 C 20.9 km/h
252 27-11-2017 20:55:00 7.2 C 6.91 g/m*3 4.11 C 17.7 km/h
253 27-11-2017 21:00:00 7.2 C 6.91 g/m*3 3.75 C 20.9 km/h
254 27-11-2017 21:05:00 7.2 C 6.91 g/m*3 4.31 C 16.1 km/h
255 27-11-2017 21:10:00 7.3 C 6.95 g/m*3 3.71 C 22.5 km/h
256 27-11-2017 21:15:00 7.3 C 6.95 g/m*3 4.05 C 19.3 km/h
257 27-11-2017 21:20:00 7.3 C 6.95 g/m*3 4.23 C 17.7 km/h
258 27-11-2017 21:25:00 7.4 C 7 g/m*3 3.84 C 22.5 km/h
259 27-11-2017 21:30:00 7.4 C 7 g/m*3 4.17 C 19.3 km/h
260 27-11-2017 21:35:00 7.4 C 7 g/m*3 3.39 C 27.4 km/h
261 27-11-2017 21:40:00 7.5 C 7.04 g/m*3 4.13 C 20.9 km/h
262 27-11-2017 21:45:00 7.4 C 7 g/m*3 4.17 C 19.3 km/h
263 27-11-2017 21:50:00 7.4 C 7 g/m*3 4.36 C 17.7 km/h
264 27-11-2017 21:55:00 7.4 C 7.08 g/m*3 4.56 C 16.1 km/h
265 27-11-2017 22:00:00 7.4 C 7.08 g/m*3 4.17 C 19.3 km/h
266 27-11-2017 22:05:00 7.4 C 7.08 g/m*3 4.78 C 14.5 km/h
267 27-11-2017 22:10:00 7.4 C 7.08 g/m*3 4.17 C 19.3 km/h
268 27-11-2017 22:15:00 7.4 C 7.08 g/m*3 4.36 C 17.7 km/h
269 27-11-2017 22:20:00 7.4 C 7.08 g/m*3 4.36 C 17.7 km/h
270 27-11-2017 22:25:00 7.5 C 7.12 g/m*3 4.3 C 19.3 km/h
271 27-11-2017 22:30:00 7.5 C 7.12 g/m*3 4.68 C 16.1 km/h
272 27-11-2017 22:35:00 7.6 C 7.17 g/m*3 4.61 C 17.7 km/h
273 27-11-2017 22:40:00 7.6 C 7.17 g/m*3 5.26 C 12.9 km/h
274 27-11-2017 22:45:00 7.6 C 7.17 g/m*3 4.61 C 17.7 km/h
275 27-11-2017 22:50:00 7.6 C 7.17 g/m*3 4.81 C 16.1 km/h
Sensor: Nr:Datum:Temp:Abs-Feuchte:Windchill:Wind:
Aussen-T/F 276 27-11-2017 22:55:00 7.6 C 7.17 g/m*3 5.02 C 14.5 km/h
277 27-11-2017 23:00:00 7.6 C 7.17 g/m*3 5.53 C 11.3 km/h
278 27-11-2017 23:05:00 7.6 C 7.17 g/m*3 4.61 C 17.7 km/h
279 27-11-2017 23:10:00 7.6 C 7.17 g/m*3 5.26 C 12.9 km/h
280 27-11-2017 23:15:00 7.6 C 7.17 g/m*3 5.26 C 12.9 km/h
281 27-11-2017 23:20:00 7.6 C 7.25 g/m*3 5.02 C 14.5 km/h
282 27-11-2017 23:25:00 7.6 C 7.25 g/m*3 4.09 C 22.5 km/h
283 27-11-2017 23:30:00 7.6 C 7.25 g/m*3 5.02 C 14.5 km/h
284 27-11-2017 23:35:00 7.6 C 7.25 g/m*3 5.26 C 12.9 km/h
285 27-11-2017 23:40:00 7.6 C 7.25 g/m*3 5.26 C 12.9 km/h
286 27-11-2017 23:45:00 7.6 C 7.25 g/m*3 3.8 C 25.7 km/h
287 27-11-2017 23:50:00 7.6 C 7.25 g/m*3 5.02 C 14.5 km/h
288 27-11-2017 23:55:00 7.7 C 7.22 g/m*3 4.07 C 24.1 km/h

Legende:
   Min
   Max


Maximal/Minimal-Werte vom 23.02.2003 - 28.11.2020

Sensor Min Max Avg
Temp
(Aussen-T/F)
-16.4 °C
20-12-2009  01:30:01
40.4 °C
25-07-2019  16:20:00
11.3 °C

Die Daten stammen von einer Davis Vantage Pro 2 Wetter-Station und werden unter Linux mit der Software wview2wettercgi und aufbereitet. Alle Angaben erfolgen ohne Gewähr für ihre Vollständigkeit oder Richtigkeit.
Kontakt: Rainer Krienke krienke@uni-koblenz.de . Meine Webseiten an der Uni Koblenz oder privat.
Version: $Revision: 0.78 $